createdAt,value
2023-01-03T00:02:23.026Z,76609.09
2023-01-03T00:04:50.451Z,76605.06
2023-01-03T00:07:33.814Z,76609.09
2023-01-03T00:10:03.003Z,76619.25
2023-01-03T00:12:32.198Z,76621.28
2023-01-03T00:15:00.285Z,76613.16
2023-01-03T00:17:28.722Z,76625.31
2023-01-03T00:19:55.724Z,76625.31
2023-01-03T00:22:22.941Z,76621.28
2023-01-03T00:24:51.838Z,76625.31
2023-01-03T00:27:19.265Z,76627.34
2023-01-03T00:29:46.190Z,76625.31
2023-01-03T00:32:13.770Z,76637.50
2023-01-03T00:34:44.356Z,76641.53
2023-01-03T00:37:12.629Z,76657.75
2023-01-03T00:39:39.675Z,76667.91
2023-01-03T00:42:07.512Z,76673.97
2023-01-03T00:44:34.530Z,76673.97
2023-01-03T00:47:02.255Z,76673.97
2023-01-03T00:49:29.305Z,76673.97
2023-01-03T00:51:57.073Z,76678.03
2023-01-03T00:54:24.347Z,76690.19
2023-01-03T00:56:52.208Z,76678.03
2023-01-03T00:59:20.881Z,76686.13
2023-01-03T01:01:54.298Z,76696.28
2023-01-03T01:04:28.981Z,76686.13
2023-01-03T01:06:59.553Z,76698.31
2023-01-03T01:09:37.163Z,76698.31
2023-01-03T01:12:06.932Z,76682.09
2023-01-03T01:14:34.035Z,76694.25
2023-01-03T01:17:04.542Z,76688.16
2023-01-03T01:19:49.593Z,76694.25
2023-01-03T01:22:16.765Z,76692.22
2023-01-03T01:24:43.651Z,76669.94
2023-01-03T01:27:10.933Z,76673.97
2023-01-03T01:29:38.808Z,76661.81
2023-01-03T01:32:06.590Z,76673.97
2023-01-03T01:34:33.867Z,76678.03
2023-01-03T01:37:01.244Z,76673.97
2023-01-03T01:39:29.553Z,76669.94
2023-01-03T01:42:20.737Z,76673.97
2023-01-03T01:44:53.349Z,76673.97
2023-01-03T01:47:23.647Z,76665.88
2023-01-03T01:50:12.492Z,76669.94
2023-01-03T01:52:54.673Z,76657.75
2023-01-03T01:55:23.666Z,76651.69
2023-01-03T01:57:51.152Z,76643.56
2023-01-03T02:00:18.253Z,76653.72
2023-01-03T02:02:49.783Z,76653.72
2023-01-03T02:05:18.934Z,76661.81
2023-01-03T02:07:50.061Z,76655.72
2023-01-03T02:10:21.539Z,76653.72
2023-01-03T02:13:21.572Z,76665.88
2023-01-03T02:16:13.118Z,76653.72
2023-01-03T02:18:48.696Z,76673.97
2023-01-03T02:21:40.728Z,76661.81
2023-01-03T02:24:42.847Z,76663.84
2023-01-03T02:27:34.745Z,76653.72
2023-01-03T02:30:23.636Z,76673.97
2023-01-03T02:33:09.178Z,76669.94
2023-01-03T02:35:46.454Z,76680.06
2023-01-03T02:38:26.247Z,76698.31
2023-01-03T02:41:06.568Z,76690.19
2023-01-03T02:43:38.878Z,76698.31
2023-01-03T02:46:21.819Z,76694.25
2023-01-03T02:48:56.804Z,76706.41
2023-01-03T02:51:33.947Z,76702.34
2023-01-03T02:54:03.818Z,76698.31
2023-01-03T02:56:37.682Z,76702.34
2023-01-03T02:59:12.313Z,76706.41
2023-01-03T03:01:45.373Z,76706.41
2023-01-03T03:04:13.911Z,76700.34
2023-01-03T03:06:56.840Z,76722.63
2023-01-03T03:09:24.488Z,76726.69
2023-01-03T03:12:12.652Z,76732.75
2023-01-03T03:14:45.585Z,76734.78
2023-01-03T03:17:22.202Z,76738.84
2023-01-03T03:20:14.763Z,76746.97
2023-01-03T03:23:09.308Z,76759.13
2023-01-03T03:25:43.658Z,76759.13
2023-01-03T03:28:35.852Z,76751.00
2023-01-03T03:31:36.973Z,76783.44
2023-01-03T03:34:07.817Z,76779.38
2023-01-03T03:36:40.735Z,76805.75
2023-01-03T03:39:32.714Z,76819.94
2023-01-03T03:42:41.365Z,76844.25
2023-01-03T03:45:24.329Z,76848.31
2023-01-03T03:48:23.255Z,76840.22
2023-01-03T03:51:10.600Z,76854.41
2023-01-03T03:53:40.092Z,76872.66
2023-01-03T03:56:11.833Z,76868.59
2023-01-03T03:58:50.319Z,76880.75
2023-01-03T04:01:22.280Z,76886.84
2023-01-03T04:03:52.119Z,76884.81
2023-01-03T04:06:44.806Z,76896.97
2023-01-03T04:09:12.308Z,76892.91
2023-01-03T04:11:39.586Z,76899.00
2023-01-03T04:14:06.496Z,76899.00
2023-01-03T04:16:33.920Z,76905.09
2023-01-03T04:19:00.849Z,76905.09
2023-01-03T04:21:45.963Z,76921.31
2023-01-03T04:24:13.158Z,76933.47
2023-01-03T04:26:40.065Z,76917.25
2023-01-03T04:29:07.300Z,76925.34
2023-01-03T04:31:34.260Z,76939.53
2023-01-03T04:34:01.743Z,76957.78
2023-01-03T04:36:28.653Z,76963.88
2023-01-03T04:38:56.212Z,76965.91
2023-01-03T04:41:24.201Z,76982.13
2023-01-03T04:44:01.891Z,76965.91
2023-01-03T04:46:37.233Z,76971.97
2023-01-03T04:49:07.519Z,76976.03
2023-01-03T04:51:35.318Z,76982.13
2023-01-03T04:54:03.923Z,76998.34
2023-01-03T04:56:35.573Z,77006.44
2023-01-03T04:59:03.188Z,77000.38
2023-01-03T05:01:30.371Z,76994.28
2023-01-03T05:04:00.130Z,77010.50
2023-01-03T05:06:28.360Z,77002.41
2023-01-03T05:08:56.169Z,77010.50
2023-01-03T05:11:23.297Z,77010.50
2023-01-03T05:13:50.495Z,77030.78
2023-01-03T05:16:17.496Z,77038.88
2023-01-03T05:18:45.138Z,77036.84
2023-01-03T05:21:36.802Z,77055.09
2023-01-03T05:24:23.031Z,77075.38
2023-01-03T05:26:51.678Z,77069.28
2023-01-03T05:29:21.123Z,77077.41
2023-01-03T05:31:48.803Z,77083.50
2023-01-03T05:34:16.184Z,77087.53
2023-01-03T05:37:01.611Z,77091.59
2023-01-03T05:39:28.981Z,77111.88
2023-01-03T05:42:00.405Z,77124.03
2023-01-03T05:44:33.179Z,77119.97
2023-01-03T05:47:01.838Z,77130.13
2023-01-03T05:49:29.242Z,77140.25
2023-01-03T05:51:56.361Z,77146.34
2023-01-03T05:54:23.666Z,77148.38
2023-01-03T05:56:51.318Z,77172.69
2023-01-03T05:59:19.045Z,77186.88
2023-01-03T06:01:46.058Z,77188.91
2023-01-03T06:04:13.360Z,77201.06
2023-01-03T06:06:40.375Z,77205.13
2023-01-03T06:09:07.926Z,77213.25
2023-01-03T06:11:34.938Z,77217.28
2023-01-03T06:14:03.612Z,77229.47
2023-01-03T06:16:49.399Z,77221.34
2023-01-03T06:19:16.716Z,77233.53
2023-01-03T06:21:43.600Z,77245.69
2023-01-03T06:24:11.365Z,77243.66
2023-01-03T06:26:38.448Z,77245.69
2023-01-03T06:29:06.404Z,77233.53
2023-01-03T06:31:34.047Z,77241.63
2023-01-03T06:34:01.505Z,77253.78
2023-01-03T06:36:32.061Z,77253.78
2023-01-03T06:38:59.307Z,77249.75
2023-01-03T06:41:26.765Z,77255.81
2023-01-03T06:43:55.424Z,77255.81
2023-01-03T06:46:41.609Z,77249.75
2023-01-03T06:49:35.827Z,77257.84
2023-01-03T06:52:23.885Z,77257.84
2023-01-03T06:54:51.236Z,77270.00
2023-01-03T06:57:26.338Z,77272.03
2023-01-03T06:59:55.347Z,77272.03
2023-01-03T07:02:22.383Z,77265.97
2023-01-03T07:04:49.755Z,77274.06
2023-01-03T07:07:16.773Z,77257.84
2023-01-03T07:09:43.945Z,77270.00
2023-01-03T07:12:29.508Z,77276.09
2023-01-03T07:14:56.803Z,77272.03
2023-01-03T07:17:24.179Z,77274.06
2023-01-03T07:19:51.538Z,77265.97
2023-01-03T07:22:18.422Z,77263.94
2023-01-03T07:24:45.777Z,77278.13
2023-01-03T07:27:13.112Z,77278.13
2023-01-03T07:29:40.355Z,77270.00
2023-01-03T07:32:07.268Z,77270.00
2023-01-03T07:34:34.483Z,77265.97
2023-01-03T07:37:01.472Z,77278.13
2023-01-03T07:39:29.015Z,77276.09
2023-01-03T07:42:15.064Z,77282.19
2023-01-03T07:44:42.227Z,77286.22
2023-01-03T07:47:09.155Z,77282.19
2023-01-03T07:49:36.670Z,77280.16
2023-01-03T07:52:03.820Z,77284.22
2023-01-03T07:54:31.044Z,77286.22
2023-01-03T07:56:58.333Z,77290.28
2023-01-03T07:59:25.537Z,77284.22
2023-01-03T08:01:52.511Z,77274.06
2023-01-03T08:04:20.081Z,77282.19
2023-01-03T08:06:47.031Z,77278.13
2023-01-03T08:09:33.037Z,77270.00
2023-01-03T08:12:18.681Z,77274.06
2023-01-03T08:14:45.888Z,77286.22
2023-01-03T08:17:12.814Z,77280.16
2023-01-03T08:19:45.363Z,77274.06
2023-01-03T08:22:12.841Z,77276.09
2023-01-03T08:24:40.028Z,77272.03
2023-01-03T08:27:06.971Z,77270.00
2023-01-03T08:29:34.445Z,77274.06
2023-01-03T08:32:03.063Z,77274.06
2023-01-03T08:34:36.280Z,77282.19
2023-01-03T08:37:10.339Z,77278.13
2023-01-03T08:39:44.332Z,77294.34
2023-01-03T08:42:15.525Z,77286.22
2023-01-03T08:44:45.352Z,77278.13
2023-01-03T08:47:14.982Z,77265.97
2023-01-03T08:49:42.810Z,77261.91
2023-01-03T08:52:09.878Z,77257.84
2023-01-03T08:54:37.280Z,77253.78
2023-01-03T08:57:04.403Z,77253.78
2023-01-03T08:59:32.067Z,77253.78
2023-01-03T09:02:00.140Z,77245.69
2023-01-03T09:04:27.647Z,77245.69
2023-01-03T09:06:54.880Z,77245.69
2023-01-03T09:09:22.207Z,77225.41
2023-01-03T09:11:49.268Z,77253.78
2023-01-03T09:14:16.678Z,77229.47
2023-01-03T09:16:48.753Z,77235.53
2023-01-03T09:19:16.830Z,77241.63
2023-01-03T09:21:43.928Z,77241.63
2023-01-03T09:24:11.146Z,77247.72
2023-01-03T09:26:38.076Z,77253.78
2023-01-03T09:29:05.324Z,77270.00
2023-01-03T09:31:34.959Z,77267.97
2023-01-03T09:34:04.728Z,77265.97
2023-01-03T09:36:32.282Z,77270.00
2023-01-03T09:38:59.558Z,77274.06
2023-01-03T09:41:27.907Z,77278.13
2023-01-03T09:44:04.837Z,77257.84
2023-01-03T09:46:33.356Z,77270.00
2023-01-03T09:49:02.403Z,77267.97
2023-01-03T09:51:52.979Z,77270.00
2023-01-03T09:54:58.522Z,77282.19
2023-01-03T09:57:49.184Z,77286.22
2023-01-03T10:00:46.409Z,77294.34
2023-01-03T10:03:38.214Z,77314.63
2023-01-03T10:06:20.458Z,77324.75
2023-01-03T10:08:57.447Z,77310.56
2023-01-03T10:11:39.307Z,77292.31
2023-01-03T10:14:58.300Z,77310.56
2023-01-03T10:17:46.637Z,77314.63
2023-01-03T10:20:28.106Z,77330.84
2023-01-03T10:22:58.506Z,77338.94
2023-01-03T10:25:28.229Z,77347.06
2023-01-03T10:28:02.075Z,77324.75
2023-01-03T10:30:38.475Z,77314.63
2023-01-03T10:33:27.996Z,77294.34
2023-01-03T10:35:56.622Z,77282.19
2023-01-03T10:38:25.801Z,77296.38
2023-01-03T10:40:58.522Z,77282.19
2023-01-03T10:43:33.340Z,77282.19
2023-01-03T10:46:13.936Z,77282.19
2023-01-03T10:51:50.983Z,77294.34
2023-01-03T10:54:18.242Z,77314.63
2023-01-03T10:56:49.197Z,77294.34
2023-01-03T10:59:27.981Z,77286.22
2023-01-03T11:01:59.931Z,77282.19
2023-01-03T11:04:31.680Z,77288.25
2023-01-03T11:07:03.973Z,77282.19
2023-01-03T11:09:48.667Z,77330.84
2023-01-03T11:12:26.802Z,77367.34
2023-01-03T11:14:56.537Z,77379.50
2023-01-03T11:17:26.045Z,77407.88
2023-01-03T11:19:54.103Z,77420.06
2023-01-03T11:22:44.854Z,77442.34
2023-01-03T11:25:39.248Z,77460.59
2023-01-03T11:28:16.594Z,77472.78
2023-01-03T11:31:05.865Z,77464.66
2023-01-03T11:33:35.790Z,77468.72
2023-01-03T11:36:40.910Z,77456.53
2023-01-03T11:39:20.176Z,77440.31
2023-01-03T11:42:04.110Z,77444.38
2023-01-03T11:44:54.305Z,77432.22
2023-01-03T11:47:31.136Z,77428.16
2023-01-03T11:50:28.004Z,77440.31
2023-01-03T11:52:55.306Z,77456.53
2023-01-03T11:55:25.489Z,77472.78
2023-01-03T11:58:13.706Z,77460.59
2023-01-03T12:01:13.835Z,77495.06
2023-01-03T12:04:13.482Z,77523.47
2023-01-03T12:07:21.419Z,77527.50
2023-01-03T12:10:28.193Z,77541.72
2023-01-03T12:13:32.641Z,77553.88
2023-01-03T12:16:16.743Z,77549.81
2023-01-03T12:18:58.281Z,77553.88
2023-01-03T12:21:36.213Z,77545.75
2023-01-03T12:24:18.286Z,77541.72
2023-01-03T12:26:56.325Z,77549.81
2023-01-03T12:29:23.407Z,77557.94
2023-01-03T12:31:56.976Z,77557.94
2023-01-03T12:34:37.791Z,77549.81
2023-01-03T12:37:19.022Z,77561.97
2023-01-03T12:40:24.712Z,77557.94
2023-01-03T12:43:16.850Z,77557.94
2023-01-03T12:45:49.662Z,77561.97
2023-01-03T12:48:46.121Z,77561.97
2023-01-03T12:51:16.692Z,77580.22
2023-01-03T12:53:51.816Z,77576.19
2023-01-03T12:56:38.178Z,77590.38
2023-01-03T12:59:27.365Z,77582.25
2023-01-03T13:02:01.281Z,77582.25
2023-01-03T13:04:28.659Z,77586.31
2023-01-03T13:07:22.823Z,77594.44
2023-01-03T13:10:00.748Z,77594.44
2023-01-03T13:12:31.889Z,77586.31
2023-01-03T13:15:02.642Z,77594.44
2023-01-03T13:17:32.105Z,77602.53
2023-01-03T13:20:17.747Z,77606.59
2023-01-03T13:22:52.501Z,77606.59
2023-01-03T13:25:33.389Z,77606.59
2023-01-03T13:28:20.178Z,77598.47
2023-01-03T13:30:47.880Z,77610.66
2023-01-03T13:33:20.494Z,77620.78
2023-01-03T13:35:47.899Z,77626.88
2023-01-03T13:38:27.210Z,77634.97
2023-01-03T13:41:19.049Z,77634.97
2023-01-03T13:43:50.625Z,77647.16
2023-01-03T13:46:19.914Z,77651.19
2023-01-03T13:48:58.942Z,77663.38
2023-01-03T13:51:32.080Z,77667.44
2023-01-03T13:54:11.021Z,77679.59
2023-01-03T13:56:44.397Z,77687.69
2023-01-03T13:59:14.393Z,77681.63
2023-01-03T14:01:54.086Z,77695.81
2023-01-03T14:04:30.028Z,77699.88
2023-01-03T14:07:21.313Z,77712.03
2023-01-03T14:10:09.990Z,77720.16
2023-01-03T14:12:46.390Z,77728.25
2023-01-03T14:15:25.944Z,77738.41
2023-01-03T14:18:01.927Z,77736.38
2023-01-03T14:20:34.223Z,77728.25
2023-01-03T14:23:31.313Z,77740.44
2023-01-03T14:25:53.951Z,77760.69
2023-01-03T14:28:33.801Z,77764.75
2023-01-03T14:31:06.515Z,77772.88
2023-01-03T14:33:41.448Z,77776.94
2023-01-03T14:36:14.262Z,77787.06
2023-01-03T14:39:01.416Z,77793.16
2023-01-03T14:41:35.934Z,77793.16
2023-01-03T14:44:15.157Z,77795.19
2023-01-03T14:46:53.267Z,77797.19
2023-01-03T14:49:32.523Z,77817.47
2023-01-03T14:52:19.655Z,77825.59
2023-01-03T14:54:51.035Z,77811.41
2023-01-03T14:57:26.815Z,77813.44
2023-01-03T14:59:57.673Z,77817.47
2023-01-03T15:02:25.481Z,77819.50
2023-01-03T15:04:58.645Z,77823.56
2023-01-03T15:07:39.306Z,77841.81
2023-01-03T15:10:17.623Z,77845.88
2023-01-03T15:12:49.271Z,77835.72
2023-01-03T15:15:24.845Z,77841.81
2023-01-03T15:17:56.379Z,77841.81
2023-01-03T15:20:44.516Z,77853.97
2023-01-03T15:23:28.208Z,77858.03
2023-01-03T15:25:55.456Z,77878.31
2023-01-03T15:28:56.285Z,77882.38
2023-01-03T15:31:37.405Z,77890.47
2023-01-03T15:34:34.944Z,77898.59
2023-01-03T15:37:21.958Z,77890.47
2023-01-03T15:39:52.404Z,77898.59
2023-01-03T15:42:56.179Z,77896.56
2023-01-03T15:45:35.659Z,77902.66
2023-01-03T15:48:04.975Z,77918.88
2023-01-03T15:50:50.069Z,77937.13
2023-01-03T15:53:28.212Z,77910.75
2023-01-03T15:55:59.659Z,77922.94
2023-01-03T15:58:28.700Z,77935.09
2023-01-03T16:00:56.666Z,77943.22
2023-01-03T16:03:25.981Z,77943.22
2023-01-03T16:05:53.382Z,77951.31
2023-01-03T16:08:27.582Z,77955.38
2023-01-03T16:10:56.494Z,77951.31
2023-01-03T16:13:25.753Z,77963.50
2023-01-03T16:15:53.765Z,77971.59
2023-01-03T16:18:26.882Z,77979.72
2023-01-03T16:20:56.182Z,77971.59
2023-01-03T16:23:28.017Z,77971.59
2023-01-03T16:25:55.860Z,77979.72
2023-01-03T16:28:24.559Z,77983.75
2023-01-03T16:31:02.425Z,77987.81
2023-01-03T16:33:33.854Z,77995.94
2023-01-03T16:36:01.126Z,77987.81
2023-01-03T16:38:30.113Z,77979.72
2023-01-03T16:40:57.717Z,77987.81
2023-01-03T16:43:26.457Z,77983.75
2023-01-03T16:45:59.516Z,77975.66
2023-01-03T16:48:38.099Z,77975.66
2023-01-03T16:51:06.283Z,77983.75
2023-01-03T16:53:37.400Z,77987.81
2023-01-03T16:56:06.647Z,77987.81
2023-01-03T16:58:33.623Z,77991.88
2023-01-03T17:01:00.905Z,77991.88
2023-01-03T17:03:28.035Z,77975.66
2023-01-03T17:05:55.385Z,77979.72
2023-01-03T17:08:41.454Z,77975.66
2023-01-03T17:11:09.299Z,77979.72
2023-01-03T17:13:41.811Z,77971.59
2023-01-03T17:16:18.137Z,77971.59
2023-01-03T17:18:45.782Z,77963.50
2023-01-03T17:21:24.790Z,77971.59
2023-01-03T17:23:55.241Z,77971.59
2023-01-03T17:26:23.973Z,77975.66
2023-01-03T17:28:53.805Z,77971.59
2023-01-03T17:31:26.092Z,77979.72
2023-01-03T17:33:53.809Z,77979.72
2023-01-03T17:36:25.832Z,77995.94
2023-01-03T17:38:55.072Z,78006.06
2023-01-03T17:41:25.302Z,78010.13
2023-01-03T17:43:53.604Z,78010.13
2023-01-03T17:46:42.525Z,78028.38
2023-01-03T17:49:24.419Z,78042.56
2023-01-03T17:52:01.855Z,78050.69
2023-01-03T17:54:33.506Z,78060.81
2023-01-03T17:57:01.473Z,78073.00
2023-01-03T17:59:28.767Z,78079.09
2023-01-03T18:01:56.484Z,78068.94
2023-01-03T18:04:38.278Z,78073.00
2023-01-03T18:07:20.692Z,78064.88
2023-01-03T18:09:49.252Z,78052.72
2023-01-03T18:12:19.292Z,78056.78
2023-01-03T18:14:46.658Z,78048.66
2023-01-03T18:17:34.129Z,78048.66
2023-01-03T18:20:01.959Z,78060.81
2023-01-03T18:22:29.468Z,78060.81
2023-01-03T18:24:57.350Z,78058.81
2023-01-03T18:27:27.237Z,78060.81
2023-01-03T18:29:54.374Z,78056.78
2023-01-03T18:32:32.643Z,78064.88
2023-01-03T18:35:00.057Z,78060.81
2023-01-03T18:37:34.645Z,78060.81
2023-01-03T18:40:03.488Z,78056.78
2023-01-03T18:42:49.400Z,78068.94
2023-01-03T18:45:16.553Z,78081.09
2023-01-03T18:47:43.776Z,78085.16
2023-01-03T18:50:18.927Z,78077.06
2023-01-03T18:52:47.914Z,78070.97
2023-01-03T18:55:18.349Z,78073.00
2023-01-03T18:57:48.144Z,78073.00
2023-01-03T19:00:17.069Z,78077.06
2023-01-03T19:02:44.734Z,78075.03
2023-01-03T19:05:12.530Z,78081.09
2023-01-03T19:07:43.771Z,78089.22
2023-01-03T19:10:26.148Z,78089.22
2023-01-03T19:12:57.016Z,78089.22
2023-01-03T19:15:28.431Z,78079.09
2023-01-03T19:17:59.124Z,78081.09
2023-01-03T19:20:27.318Z,78081.09
2023-01-03T19:22:55.563Z,78089.22
2023-01-03T19:25:30.441Z,78095.31
2023-01-03T19:28:00.712Z,78085.16
2023-01-03T19:30:36.969Z,78085.16
2023-01-03T19:33:13.990Z,78081.09
2023-01-03T19:35:43.285Z,78089.22
2023-01-03T19:38:10.778Z,78095.31
2023-01-03T19:40:40.172Z,78083.13
2023-01-03T19:43:07.595Z,78101.38
2023-01-03T19:45:37.221Z,78105.44
2023-01-03T19:48:14.643Z,78101.38
2023-01-03T19:50:41.835Z,78093.28
2023-01-03T19:53:09.466Z,78093.28
2023-01-03T19:55:41.265Z,78101.38
2023-01-03T19:58:19.263Z,78097.34
2023-01-03T20:00:49.436Z,78093.28
2023-01-03T20:03:40.183Z,78105.44
2023-01-03T20:06:11.502Z,78133.84
2023-01-03T20:08:38.545Z,78117.63
2023-01-03T20:11:11.789Z,78133.84
2023-01-03T20:13:38.791Z,78135.88
2023-01-03T20:16:06.493Z,78133.84
2023-01-03T20:18:39.738Z,78135.88
2023-01-03T20:21:09.737Z,78137.91
2023-01-03T20:23:40.874Z,78125.72
2023-01-03T20:26:22.155Z,78133.84
2023-01-03T20:28:50.512Z,78137.91
2023-01-03T20:31:20.602Z,78139.91
2023-01-03T20:33:48.782Z,78141.94
2023-01-03T20:36:23.548Z,78143.97
2023-01-03T20:38:53.921Z,78141.94
2023-01-03T20:41:21.456Z,78141.94
2023-01-03T20:43:50.192Z,78150.06
2023-01-03T20:46:21.163Z,78141.94
2023-01-03T20:49:01.024Z,78141.94
2023-01-03T20:51:29.293Z,78150.06
2023-01-03T20:53:56.365Z,78162.22
2023-01-03T20:56:26.286Z,78146.00
2023-01-03T20:58:53.320Z,78158.16
2023-01-03T21:01:20.622Z,78158.16
2023-01-03T21:03:47.710Z,78186.56
2023-01-03T21:06:22.614Z,78154.13
2023-01-03T21:08:56.749Z,78166.28
2023-01-03T21:11:30.626Z,78172.38
2023-01-03T21:13:59.723Z,78170.34
2023-01-03T21:16:41.605Z,78176.44
2023-01-03T21:19:36.024Z,78174.41
2023-01-03T21:22:10.301Z,78170.34
2023-01-03T21:24:39.613Z,78170.34
2023-01-03T21:27:08.132Z,78180.47
2023-01-03T21:29:35.067Z,78178.44
2023-01-03T21:32:02.319Z,78174.41
2023-01-03T21:34:30.685Z,78172.38
2023-01-03T21:36:57.943Z,78170.34
2023-01-03T21:39:24.845Z,78170.34
2023-01-03T21:42:10.569Z,78178.44
2023-01-03T21:44:37.436Z,78178.44
2023-01-03T21:47:04.637Z,78174.41
2023-01-03T21:49:31.671Z,78170.34
2023-01-03T21:51:58.830Z,78174.41
2023-01-03T21:54:25.893Z,78202.78
2023-01-03T21:56:53.328Z,78170.34
2023-01-03T21:59:20.168Z,78160.19
2023-01-03T22:02:06.869Z,78172.38
2023-01-03T22:04:34.787Z,78166.28
2023-01-03T22:07:02.622Z,78166.28
2023-01-03T22:09:49.163Z,78150.06
2023-01-03T22:12:18.032Z,78162.22
2023-01-03T22:14:45.996Z,78158.16
2023-01-03T22:17:13.578Z,78137.91
2023-01-03T22:19:40.474Z,78158.16
2023-01-03T22:22:07.722Z,78166.28
2023-01-03T22:24:34.624Z,78166.28
2023-01-03T22:27:01.754Z,78162.22
2023-01-03T22:29:28.734Z,78150.06
2023-01-03T22:31:56.061Z,78162.22
2023-01-03T22:34:23.106Z,78146.00
2023-01-03T22:36:50.565Z,78162.22
2023-01-03T22:39:17.484Z,78162.22
2023-01-03T22:41:44.637Z,78158.16
2023-01-03T22:44:11.508Z,78162.22
2023-01-03T22:46:39.072Z,78158.16
2023-01-03T22:49:05.952Z,78172.38
2023-01-03T22:51:33.182Z,78174.41
2023-01-03T22:54:00.161Z,78178.44
2023-01-03T22:56:27.528Z,78184.53
2023-01-03T22:58:54.434Z,78178.44
2023-01-03T23:01:27.521Z,78182.50
2023-01-03T23:03:59.901Z,78186.56
2023-01-03T23:06:29.430Z,78202.78
2023-01-03T23:08:56.613Z,78198.72
2023-01-03T23:11:44.258Z,78206.84
2023-01-03T23:14:13.694Z,78206.84
2023-01-03T23:16:41.574Z,78202.78
2023-01-03T23:19:12.690Z,78206.84
2023-01-03T23:21:40.257Z,78198.72
2023-01-03T23:24:11.758Z,78210.91
2023-01-03T23:26:38.936Z,78206.84
2023-01-03T23:29:05.931Z,78219.00
2023-01-03T23:31:33.215Z,78206.84
2023-01-03T23:34:00.523Z,78210.91
2023-01-03T23:36:28.607Z,78223.06
2023-01-03T23:38:56.338Z,78219.00
2023-01-03T23:41:23.700Z,78221.03
2023-01-03T23:43:51.392Z,78229.16
2023-01-03T23:46:21.690Z,78235.25
2023-01-03T23:48:53.438Z,78247.41
2023-01-03T23:51:20.601Z,78253.50
2023-01-03T23:53:47.486Z,78259.56
2023-01-03T23:56:17.148Z,78259.56
2023-01-03T23:58:44.760Z,78265.66
